Time;durP1;ratioP1;P1;durP2;ratioP2;P2;SDS_P1;SDS_P2;PMS_P1;PMS_P2;Temp;Humidity;BMP_temperature;BMP_pressure;BME280_temperature;BME280_humidity;BME280_pressure;Samples;Min_cycle;Max_cycle;Signal;HPM_P1;HPM_P2
2022/06/24 00:00:10;;;;;;;6.88;1.92;;;;;;;;;;5036138;28;20072;-66
2022/06/24 00:02:38;;;;;;;19.25;2.10;;;;;;;;;;5049369;28;20099;-66
2022/06/24 00:05:10;;;;;;;5.18;1.50;;;;;;;;;;5031484;28;20103;-66
2022/06/24 00:07:47;;;;;;;7.25;1.83;;;;;;;;;;5049461;28;20049;-66
2022/06/24 00:10:15;;;;;;;4.88;1.92;;;;;;;;;;5051625;28;20106;-66
2022/06/24 00:12:44;;;;;;;6.32;1.63;;;;;;;;;;5051194;28;20118;-66
2022/06/24 00:15:11;;;;;;;3.33;1.40;;;;;;;;;;5051585;28;20053;-66
2022/06/24 00:17:38;;;;;;;3.70;1.60;;;;;;;;;;5050425;28;20060;-66
2022/06/24 00:20:07;;;;;;;8.15;1.90;;;;;;;;;;5044032;28;20046;-66
2022/06/24 00:22:45;;;;;;;6.55;2.15;;;;;;;;;;5032696;28;20049;-66
2022/06/24 00:25:13;;;;;;;5.63;1.40;;;;;;;;;;5051759;28;20454;-66
2022/06/24 00:27:41;;;;;;;4.95;1.85;;;;;;;;;;5033351;28;20052;-66
2022/06/24 00:30:15;;;;;;;6.70;1.58;;;;;;;;;;5033303;28;20103;-66
2022/06/24 00:32:43;;;;;;;7.95;1.83;;;;;;;;;;5031457;28;20055;-66
2022/06/24 00:35:14;;;;;;;3.35;1.42;;;;;;;;;;5032560;28;20052;-66
2022/06/24 00:37:42;;;;;;;5.60;1.75;;;;;;;;;;5051268;28;20079;-66
2022/06/24 00:40:11;;;;;;;5.57;1.48;;;;;;;;;;5050861;28;20045;-66
2022/06/24 00:42:39;;;;;;;10.25;2.13;;;;;;;;;;5050699;28;20099;-66
2022/06/24 00:45:37;;;;;;;4.60;1.60;;;;;;;;;;5051303;28;20049;-66
2022/06/24 00:48:14;;;;;;;3.70;1.77;;;;;;;;;;5051224;28;20511;-66
2022/06/24 00:50:45;;;;;;;4.80;1.80;;;;;;;;;;5051395;28;20095;-66
2022/06/24 00:53:12;;;;;;;5.00;1.90;;;;;;;;;;5044196;28;20046;-66
2022/06/24 00:55:41;;;;;;;6.45;1.90;;;;;;;;;;5031270;28;20050;-66
2022/06/24 00:58:16;;;;;;;7.40;2.10;;;;;;;;;;5051278;28;20068;-66
2022/06/24 01:00:47;;;;;;;7.65;1.75;;;;;;;;;;5051322;28;20061;-66
2022/06/24 01:03:14;;;;;;;9.52;2.17;;;;;;;;;;5051343;28;20045;-66
2022/06/24 01:05:42;;;;;;;7.75;2.33;;;;;;;;;;5049403;28;20048;-66
2022/06/24 01:08:11;;;;;;;3.53;2.15;;;;;;;;;;5031176;28;20467;-66
2022/06/24 01:10:38;;;;;;;5.88;2.10;;;;;;;;;;5049249;28;20056;-66
2022/06/24 01:13:11;;;;;;;6.93;1.67;;;;;;;;;;5033984;28;20099;-66
2022/06/24 01:15:38;;;;;;;3.90;2.40;;;;;;;;;;5031112;28;20049;-66
2022/06/24 01:18:05;;;;;;;6.43;1.80;;;;;;;;;;5033479;28;20057;-66
2022/06/24 01:20:32;;;;;;;4.00;2.25;;;;;;;;;;5037728;28;20051;-65
2022/06/24 01:22:59;;;;;;;3.10;2.00;;;;;;;;;;5054321;28;20499;-66
2022/06/24 01:25:26;;;;;;;4.97;1.63;;;;;;;;;;5036447;28;20396;-66
2022/06/24 01:27:52;;;;;;;5.28;1.90;;;;;;;;;;5046404;28;20095;-66
2022/06/24 01:30:19;;;;;;;5.63;2.40;;;;;;;;;;5054410;28;20495;-66
2022/06/24 01:32:45;;;;;;;5.13;2.10;;;;;;;;;;5052632;28;20053;-66
2022/06/24 01:35:13;;;;;;;7.55;1.55;;;;;;;;;;5034323;28;20401;-66
2022/06/24 01:37:40;;;;;;;6.00;2.40;;;;;;;;;;5034443;28;20104;-66
2022/06/24 01:40:08;;;;;;;4.28;1.75;;;;;;;;;;5034174;28;20061;-66
2022/06/24 01:42:35;;;;;;;7.10;2.25;;;;;;;;;;5032793;28;20054;-66
2022/06/24 01:45:02;;;;;;;3.95;1.80;;;;;;;;;;5044133;28;20045;-66
2022/06/24 01:47:28;;;;;;;7.88;2.20;;;;;;;;;;5054235;28;20427;-66
2022/06/24 01:49:55;;;;;;;6.30;1.80;;;;;;;;;;5054095;28;20057;-66
2022/06/24 01:52:22;;;;;;;7.05;2.10;;;;;;;;;;5037520;28;20496;-66
2022/06/24 01:54:48;;;;;;;6.30;2.42;;;;;;;;;;5033657;28;20046;-66
2022/06/24 01:57:15;;;;;;;5.28;2.10;;;;;;;;;;5049113;28;20048;-66
2022/06/24 01:59:41;;;;;;;10.20;2.47;;;;;;;;;;5054001;28;20114;-66
2022/06/24 02:02:08;;;;;;;7.85;2.45;;;;;;;;;;5037858;28;20056;-66
2022/06/24 02:04:35;;;;;;;5.15;2.10;;;;;;;;;;5034142;28;20393;-66
2022/06/24 02:07:02;;;;;;;9.48;2.78;;;;;;;;;;5048832;28;20046;-66
2022/06/24 02:09:28;;;;;;;8.73;3.13;;;;;;;;;;5033676;28;20065;-65
2022/06/24 02:14:40;;;;;;;4.80;2.88;;;;;;;;;;5033465;28;20091;-65
2022/06/24 02:17:10;;;;;;;6.25;2.50;;;;;;;;;;5033595;28;20416;-65
2022/06/24 02:19:37;;;;;;;6.20;2.72;;;;;;;;;;5032692;28;20053;-65
2022/06/24 02:22:04;;;;;;;5.38;2.60;;;;;;;;;;5032159;28;20497;-65
2022/06/24 02:24:31;;;;;;;7.85;2.72;;;;;;;;;;5033536;28;20049;-65
2022/06/24 02:26:57;;;;;;;11.32;2.90;;;;;;;;;;5035216;28;20424;-66
2022/06/24 02:29:24;;;;;;;7.60;2.95;;;;;;;;;;5037448;28;20045;-66
2022/06/24 02:31:50;;;;;;;6.78;2.50;;;;;;;;;;5033237;28;20071;-66
2022/06/24 02:34:17;;;;;;;10.15;3.55;;;;;;;;;;5040558;28;20079;-66
2022/06/24 02:36:44;;;;;;;8.25;2.40;;;;;;;;;;5039053;28;20050;-66
2022/06/24 02:39:10;;;;;;;6.65;2.72;;;;;;;;;;5053092;28;20045;-66
2022/06/24 02:41:37;;;;;;;5.97;2.47;;;;;;;;;;5013534;28;20057;-66
2022/06/24 02:44:04;;;;;;;8.82;3.65;;;;;;;;;;5013402;28;20042;-66
2022/06/24 02:46:30;;;;;;;7.10;2.85;;;;;;;;;;5040150;28;20136;-66
2022/06/24 02:48:58;;;;;;;4.85;2.88;;;;;;;;;;5052985;28;20558;-66
2022/06/24 02:51:25;;;;;;;5.85;2.53;;;;;;;;;;5053107;28;20057;-66
2022/06/24 02:53:51;;;;;;;5.22;3.08;;;;;;;;;;5051780;28;20060;-66
2022/06/24 02:56:18;;;;;;;9.35;2.78;;;;;;;;;;5052680;28;20091;-66
2022/06/24 02:58:45;;;;;;;7.55;2.97;;;;;;;;;;5052758;28;20500;-66
2022/06/24 03:01:11;;;;;;;9.27;3.17;;;;;;;;;;5052548;28;20044;-66
2022/06/24 03:03:38;;;;;;;9.13;3.35;;;;;;;;;;5052425;28;20459;-66
2022/06/24 03:06:06;;;;;;;7.50;3.63;;;;;;;;;;5051680;28;20091;-66
2022/06/24 03:08:32;;;;;;;6.53;3.35;;;;;;;;;;5051569;28;20515;-66
2022/06/24 03:10:59;;;;;;;9.48;4.15;;;;;;;;;;5047506;28;20393;-66
2022/06/24 03:13:26;;;;;;;11.48;3.88;;;;;;;;;;5031346;28;20100;-66
2022/06/24 03:15:52;;;;;;;12.77;4.45;;;;;;;;;;5036410;28;20044;-66
2022/06/24 03:18:20;;;;;;;8.75;4.38;;;;;;;;;;5052303;28;20417;-64
2022/06/24 03:20:46;;;;;;;13.52;4.72;;;;;;;;;;5052229;28;20079;-65
2022/06/24 03:23:14;;;;;;;10.25;4.38;;;;;;;;;;5051400;28;20492;-65
2022/06/24 03:25:41;;;;;;;10.88;4.65;;;;;;;;;;5031254;28;20068;-65
2022/06/24 03:28:08;;;;;;;9.50;4.75;;;;;;;;;;5032359;28;20072;-65
2022/06/24 03:30:35;;;;;;;9.90;4.80;;;;;;;;;;5032625;28;20049;-65
2022/06/24 03:33:02;;;;;;;9.07;5.15;;;;;;;;;;5032205;28;20049;-65
2022/06/24 03:35:29;;;;;;;9.18;5.45;;;;;;;;;;5020173;28;20438;-65
2022/06/24 03:37:55;;;;;;;10.25;4.40;;;;;;;;;;5048339;28;20073;-65
2022/06/24 03:40:22;;;;;;;13.38;5.38;;;;;;;;;;5044515;28;20496;-65
2022/06/24 03:42:49;;;;;;;9.23;5.18;;;;;;;;;;5051649;28;20056;-64
2022/06/24 03:45:16;;;;;;;12.35;5.10;;;;;;;;;;5051594;28;20045;-64
2022/06/24 03:47:43;;;;;;;9.60;4.50;;;;;;;;;;5052040;28;20098;-64
2022/06/24 03:50:09;;;;;;;9.73;4.50;;;;;;;;;;5051174;28;20076;-64
2022/06/24 03:52:39;;;;;;;6.70;4.40;;;;;;;;;;5031920;28;20504;-64
2022/06/24 03:55:06;;;;;;;9.63;4.57;;;;;;;;;;5030500;28;20044;-64
2022/06/24 03:57:32;;;;;;;11.30;4.18;;;;;;;;;;5031888;28;20050;-64
2022/06/24 04:00:01;;;;;;;8.38;3.80;;;;;;;;;;5032018;28;20049;-64
2022/06/24 04:02:28;;;;;;;7.93;4.07;;;;;;;;;;5032005;28;20056;-64
2022/06/24 04:04:55;;;;;;;9.48;4.28;;;;;;;;;;5031975;28;20048;-64
2022/06/24 04:07:22;;;;;;;10.52;4.10;;;;;;;;;;5031604;28;20049;-65
2022/06/24 04:09:49;;;;;;;10.20;4.50;;;;;;;;;;5030627;28;20045;-64
2022/06/24 04:12:15;;;;;;;12.75;4.88;;;;;;;;;;5031517;28;20511;-64
2022/06/24 04:17:27;;;;;;;11.90;4.10;;;;;;;;;;5031793;28;20100;-64
2022/06/24 04:19:54;;;;;;;8.20;3.85;;;;;;;;;;5036676;28;20045;-64
2022/06/24 04:22:21;;;;;;;10.15;4.18;;;;;;;;;;5040993;28;20054;-64
2022/06/24 04:24:47;;;;;;;9.65;4.05;;;;;;;;;;5029250;28;20087;-66
2022/06/24 04:27:14;;;;;;;11.27;3.47;;;;;;;;;;5029548;28;20057;-65
2022/06/24 04:29:41;;;;;;;8.48;3.72;;;;;;;;;;5032289;28;20462;-65
2022/06/24 04:32:07;;;;;;;6.60;3.75;;;;;;;;;;5049842;28;20053;-65
2022/06/24 04:34:38;;;;;;;11.95;4.30;;;;;;;;;;5049519;28;20080;-66
2022/06/24 04:37:06;;;;;;;7.25;3.75;;;;;;;;;;5049383;28;20057;-66
2022/06/24 04:39:32;;;;;;;6.35;3.55;;;;;;;;;;5047977;28;20045;-65
2022/06/24 04:41:59;;;;;;;8.32;3.70;;;;;;;;;;5029880;28;20053;-66
2022/06/24 04:44:27;;;;;;;9.55;3.58;;;;;;;;;;5028223;28;20054;-66
2022/06/24 04:46:53;;;;;;;14.60;4.47;;;;;;;;;;5028951;28;20554;-66
2022/06/24 04:49:20;;;;;;;6.30;3.88;;;;;;;;;;5029493;28;20057;-66
2022/06/24 04:51:47;;;;;;;9.93;4.13;;;;;;;;;;5048764;28;20057;-66
2022/06/24 04:54:13;;;;;;;9.27;4.18;;;;;;;;;;5053229;28;20048;-66
2022/06/24 04:56:40;;;;;;;13.70;4.30;;;;;;;;;;5053335;28;20052;-66
2022/06/24 04:59:06;;;;;;;12.60;4.97;;;;;;;;;;5053246;28;20393;-66
2022/06/24 05:01:33;;;;;;;10.32;4.20;;;;;;;;;;5035386;28;20053;-66
2022/06/24 05:04:00;;;;;;;10.73;4.05;;;;;;;;;;5031627;28;20053;-66
2022/06/24 05:06:27;;;;;;;7.10;4.07;;;;;;;;;;5032720;28;20060;-66
2022/06/24 05:08:54;;;;;;;6.95;3.38;;;;;;;;;;5033102;28;20049;-66
2022/06/24 05:11:21;;;;;;;14.88;4.20;;;;;;;;;;5048031;28;20049;-66
2022/06/24 05:13:48;;;;;;;8.35;4.05;;;;;;;;;;5012472;28;20053;-67
2022/06/24 05:16:14;;;;;;;10.63;3.58;;;;;;;;;;5012930;28;20046;-66
2022/06/24 05:19:01;;;;;;;7.32;3.30;;;;;;;;;;5012819;28;20527;-70
2022/06/24 05:21:28;;;;;;;7.18;3.60;;;;;;;;;;5046190;28;20111;-66
2022/06/24 05:23:54;;;;;;;8.77;4.03;;;;;;;;;;5052517;28;20072;-68
2022/06/24 05:26:21;;;;;;;6.97;3.88;;;;;;;;;;5052264;28;20087;-69
2022/06/24 05:28:47;;;;;;;8.18;3.33;;;;;;;;;;5052773;28;20111;-68
2022/06/24 05:31:14;;;;;;;8.18;3.60;;;;;;;;;;5037521;28;20042;-69
2022/06/24 05:33:41;;;;;;;11.95;3.80;;;;;;;;;;5032382;28;20054;-69
2022/06/24 05:36:08;;;;;;;5.20;3.20;;;;;;;;;;5032925;28;20126;-69
2022/06/24 05:38:34;;;;;;;6.68;3.88;;;;;;;;;;5033007;28;20077;-68
2022/06/24 05:41:02;;;;;;;7.78;3.65;;;;;;;;;;5032417;28;20061;-69
2022/06/24 05:43:29;;;;;;;11.13;3.50;;;;;;;;;;5032874;28;20512;-69
2022/06/24 05:45:56;;;;;;;5.72;2.83;;;;;;;;;;5033082;28;20048;-69
2022/06/24 05:48:22;;;;;;;9.07;3.03;;;;;;;;;;5032510;28;20050;-68
2022/06/24 05:50:49;;;;;;;9.48;3.50;;;;;;;;;;5032544;28;20060;-68
2022/06/24 05:56:06;;;;;;;10.23;3.78;;;;;;;;;;5032386;28;20567;-69
2022/06/24 05:58:33;;;;;;;8.57;2.92;;;;;;;;;;5032636;28;20053;-68
2022/06/24 06:00:59;;;;;;;9.32;3.28;;;;;;;;;;5033964;28;20053;-68
2022/06/24 06:03:26;;;;;;;8.43;2.95;;;;;;;;;;5015206;28;20049;-68
2022/06/24 06:05:53;;;;;;;7.80;2.75;;;;;;;;;;5033887;28;20049;-69
2022/06/24 06:08:20;;;;;;;7.18;2.88;;;;;;;;;;5033905;28;20107;-69
2022/06/24 06:10:47;;;;;;;6.10;3.00;;;;;;;;;;5033054;28;20056;-69
2022/06/24 06:13:14;;;;;;;9.27;2.80;;;;;;;;;;5032784;28;20060;-69
2022/06/24 06:15:42;;;;;;;9.40;2.67;;;;;;;;;;5033051;28;20500;-69
2022/06/24 06:18:09;;;;;;;6.47;2.15;;;;;;;;;;5034058;28;20053;-68
2022/06/24 06:20:36;;;;;;;9.65;2.50;;;;;;;;;;5033709;28;20049;-69
2022/06/24 06:23:11;;;;;;;6.00;2.10;;;;;;;;;;5033200;28;20057;-69
2022/06/24 06:25:38;;;;;;;7.55;2.33;;;;;;;;;;5033172;28;20045;-69
2022/06/24 06:28:05;;;;;;;4.68;2.10;;;;;;;;;;5033448;28;20049;-69
2022/06/24 06:30:32;;;;;;;13.55;3.03;;;;;;;;;;5033711;28;20075;-70
2022/06/24 06:32:59;;;;;;;9.63;2.55;;;;;;;;;;5033371;28;20057;-71
2022/06/24 06:35:25;;;;;;;7.13;2.17;;;;;;;;;;5025219;28;20340;-75
2022/06/24 06:37:52;;;;;;;9.65;2.30;;;;;;;;;;5027208;28;20045;-74
2022/06/24 06:40:19;;;;;;;5.63;2.33;;;;;;;;;;5033321;28;20053;-66
2022/06/24 06:42:46;;;;;;;7.05;2.60;;;;;;;;;;5033044;28;20114;-66
2022/06/24 06:45:12;;;;;;;7.53;2.30;;;;;;;;;;5032907;28;20057;-67
2022/06/24 06:47:39;;;;;;;6.22;2.05;;;;;;;;;;5032997;28;20060;-67
2022/06/24 06:50:06;;;;;;;4.55;2.00;;;;;;;;;;5033035;28;20052;-67
2022/06/24 06:52:39;;;;;;;6.23;2.27;;;;;;;;;;5033313;28;20057;-67
2022/06/24 06:55:06;;;;;;;9.52;2.38;;;;;;;;;;5032913;28;20485;-67
2022/06/24 06:57:32;;;;;;;5.07;1.88;;;;;;;;;;5032830;28;20393;-67
2022/06/24 06:59:59;;;;;;;5.15;2.15;;;;;;;;;;5033202;28;20107;-68
2022/06/24 07:02:26;;;;;;;4.78;2.13;;;;;;;;;;5033422;28;20144;-67
2022/06/24 07:04:52;;;;;;;8.18;1.88;;;;;;;;;;5032749;28;20049;-67
2022/06/24 07:07:19;;;;;;;6.57;1.83;;;;;;;;;;5032843;28;20075;-67
2022/06/24 07:09:46;;;;;;;6.00;2.00;;;;;;;;;;5032900;28;20056;-67
2022/06/24 07:12:13;;;;;;;6.72;2.35;;;;;;;;;;5032744;28;20111;-66
2022/06/24 07:14:43;;;;;;;5.78;1.70;;;;;;;;;;5032265;28;20057;-66
2022/06/24 07:17:14;;;;;;;6.70;1.90;;;;;;;;;;5032664;28;20136;-66
2022/06/24 07:19:40;;;;;;;5.53;1.73;;;;;;;;;;5032598;28;20049;-67
2022/06/24 07:22:07;;;;;;;7.15;2.08;;;;;;;;;;5032303;28;20493;-65
2022/06/24 07:24:34;;;;;;;6.80;1.92;;;;;;;;;;5014844;28;20506;-66
2022/06/24 07:27:05;;;;;;;5.80;1.95;;;;;;;;;;5032544;28;20096;-66
2022/06/24 07:29:35;;;;;;;4.22;1.73;;;;;;;;;;5032342;28;20096;-66
2022/06/24 07:32:06;;;;;;;5.70;2.30;;;;;;;;;;5031284;28;20045;-67
2022/06/24 07:34:33;;;;;;;3.87;1.60;;;;;;;;;;5032714;28;20079;-67
2022/06/24 07:37:01;;;;;;;4.57;1.70;;;;;;;;;;5032191;28;20304;-66
2022/06/24 07:39:28;;;;;;;5.07;1.98;;;;;;;;;;5032624;28;20115;-66
2022/06/24 07:41:55;;;;;;;6.10;1.50;;;;;;;;;;5031966;28;20049;-68
2022/06/24 07:44:22;;;;;;;5.57;1.75;;;;;;;;;;5032261;28;20077;-66
2022/06/24 07:46:49;;;;;;;5.95;1.42;;;;;;;;;;5031939;28;20045;-66
2022/06/24 07:49:16;;;;;;;4.43;2.00;;;;;;;;;;5032551;28;20045;-66
2022/06/24 07:51:43;;;;;;;4.22;1.50;;;;;;;;;;5032127;28;20455;-67
2022/06/24 07:54:10;;;;;;;3.33;1.50;;;;;;;;;;5032041;28;20405;-67
2022/06/24 07:59:28;;;;;;;2.28;1.20;;;;;;;;;;5032092;28;20049;-67
2022/06/24 08:01:56;;;;;;;3.10;1.50;;;;;;;;;;5031836;28;20405;-67
2022/06/24 08:04:23;;;;;;;5.78;1.70;;;;;;;;;;5031919;28;20112;-67
2022/06/24 08:06:50;;;;;;;6.40;1.30;;;;;;;;;;5031955;28;20045;-67
2022/06/24 08:09:17;;;;;;;2.75;1.30;;;;;;;;;;5031910;28;20053;-67
2022/06/24 08:11:45;;;;;;;6.00;1.70;;;;;;;;;;5031612;28;20563;-67
2022/06/24 08:14:13;;;;;;;3.15;1.38;;;;;;;;;;5031878;28;20057;-67
2022/06/24 08:16:43;;;;;;;3.85;2.03;;;;;;;;;;5031991;28;20052;-67
2022/06/24 08:19:13;;;;;;;;;;;;;;;;;;5032237;28;20469;-67
2022/06/24 08:21:39;;;;;;;7.47;1.83;;;;;;;;;;5031732;28;20047;-67
2022/06/24 08:24:06;;;;;;;4.75;1.77;;;;;;;;;;5031593;28;20128;-66
2022/06/24 08:26:33;;;;;;;6.70;1.58;;;;;;;;;;5031814;28;20053;-67
2022/06/24 08:29:00;;;;;;;5.82;2.08;;;;;;;;;;5036087;28;20504;-66
2022/06/24 08:31:27;;;;;;;2.45;1.20;;;;;;;;;;5035673;28;20045;-66
2022/06/24 08:33:53;;;;;;;1.92;1.45;;;;;;;;;;5035580;28;20049;-67
2022/06/24 08:36:24;;;;;;;5.88;1.85;;;;;;;;;;5035736;28;20053;-67
2022/06/24 08:38:52;;;;;;;2.97;1.73;;;;;;;;;;5035496;28;20049;-64
2022/06/24 08:41:23;;;;;;;2.58;1.10;;;;;;;;;;5035684;28;20052;-64
2022/06/24 08:43:51;;;;;;;4.90;1.58;;;;;;;;;;5035711;28;20060;-64
2022/06/24 08:46:18;;;;;;;3.17;1.17;;;;;;;;;;5035467;28;20424;-64
2022/06/24 08:48:45;;;;;;;1.55;0.95;;;;;;;;;;5035444;28;20049;-65
2022/06/24 08:51:13;;;;;;;2.47;0.93;;;;;;;;;;5035273;28;20057;-65
2022/06/24 08:53:40;;;;;;;2.92;1.30;;;;;;;;;;5035371;28;20075;-64
2022/06/24 08:56:07;;;;;;;6.05;1.13;;;;;;;;;;5035072;28;20492;-65
2022/06/24 08:58:35;;;;;;;3.03;1.30;;;;;;;;;;5035202;28;20049;-64
2022/06/24 09:01:07;;;;;;;4.45;1.23;;;;;;;;;;5035290;28;20469;-64
2022/06/24 09:03:33;;;;;;;3.63;1.85;;;;;;;;;;5035021;28;20092;-63
2022/06/24 09:06:13;;;;;;;3.13;1.00;;;;;;;;;;5034980;28;20049;-64
2022/06/24 09:08:40;;;;;;;3.08;1.10;;;;;;;;;;5034109;28;20104;-64
2022/06/24 09:11:07;;;;;;;4.78;1.30;;;;;;;;;;5033727;28;20463;-64
2022/06/24 09:13:44;;;;;;;4.90;1.60;;;;;;;;;;5034769;28;20053;-64
2022/06/24 09:16:11;;;;;;;4.30;1.75;;;;;;;;;;5035583;28;20112;-64
2022/06/24 09:18:39;;;;;;;4.20;1.50;;;;;;;;;;5034730;28;20057;-63
2022/06/24 09:21:05;;;;;;;6.18;2.20;;;;;;;;;;5034792;28;20058;-63
2022/06/24 09:23:32;;;;;;;6.47;1.95;;;;;;;;;;5035010;28;20447;-64
2022/06/24 09:26:00;;;;;;;5.70;2.53;;;;;;;;;;5034660;28;20484;-64
2022/06/24 09:28:29;;;;;;;5.95;1.70;;;;;;;;;;5034498;28;20576;-64
2022/06/24 09:31:01;;;;;;;3.00;1.70;;;;;;;;;;5034278;28;20049;-63
2022/06/24 09:33:31;;;;;;;7.95;2.15;;;;;;;;;;5034416;28;20085;-64
2022/06/24 09:36:00;;;;;;;4.55;2.15;;;;;;;;;;5017731;28;20132;-64
2022/06/24 09:38:27;;;;;;;5.45;1.83;;;;;;;;;;5034337;28;20133;-64
2022/06/24 09:41:04;;;;;;;3.88;1.90;;;;;;;;;;5034285;28;20076;-64
2022/06/24 09:43:32;;;;;;;6.00;2.03;;;;;;;;;;5034376;28;20100;-63
2022/06/24 09:46:00;;;;;;;6.05;1.90;;;;;;;;;;5034109;28;20049;-63
2022/06/24 09:48:30;;;;;;;6.20;2.08;;;;;;;;;;5034250;28;20107;-64
2022/06/24 09:51:00;;;;;;;12.20;3.35;;;;;;;;;;5034067;28;20061;-64
2022/06/24 09:53:28;;;;;;;3.50;1.77;;;;;;;;;;5034297;28;20053;-64
2022/06/24 09:55:55;;;;;;;5.60;1.85;;;;;;;;;;5033989;28;20073;-64
2022/06/24 09:58:22;;;;;;;4.47;1.88;;;;;;;;;;5032875;28;20107;-64
2022/06/24 10:00:49;;;;;;;5.32;1.90;;;;;;;;;;5034146;28;20049;-65
2022/06/24 10:03:17;;;;;;;3.22;1.60;;;;;;;;;;5034094;28;20049;-64
2022/06/24 10:05:46;;;;;;;2.65;1.60;;;;;;;;;;5034139;28;20129;-64
2022/06/24 10:08:14;;;;;;;3.33;1.58;;;;;;;;;;5033992;28;20076;-64
2022/06/24 10:10:59;;;;;;;4.72;1.60;;;;;;;;;;5033620;28;20558;-64
2022/06/24 10:13:32;;;;;;;7.57;1.67;;;;;;;;;;5032745;28;20057;-64
2022/06/24 10:16:01;;;;;;;6.38;1.65;;;;;;;;;;5033471;28;20055;-64
2022/06/24 10:18:32;;;;;;;4.15;1.70;;;;;;;;;;5033794;28;20053;-64
2022/06/24 10:21:01;;;;;;;5.53;1.50;;;;;;;;;;5032358;28;20052;-64
2022/06/24 10:23:42;;;;;;;4.45;2.13;;;;;;;;;;5032545;28;20053;-64
2022/06/24 10:26:27;;;;;;;3.63;1.55;;;;;;;;;;5033754;28;20100;-64
2022/06/24 10:28:59;;;;;;;4.53;1.60;;;;;;;;;;5033538;28;20496;-64
2022/06/24 10:31:45;;;;;;;;;;;;;;;;;;5033623;28;20424;-64
2022/06/24 10:34:29;;;;;;;4.30;1.65;;;;;;;;;;5033138;28;19957;-64
2022/06/24 10:36:56;;;;;;;7.32;2.47;;;;;;;;;;5033479;28;20077;-64
2022/06/24 10:39:24;;;;;;;4.07;1.52;;;;;;;;;;5033329;28;20054;-64
2022/06/24 10:42:05;;;;;;;3.60;1.52;;;;;;;;;;5033608;28;20060;-65
2022/06/24 10:44:32;;;;;;;3.70;1.60;;;;;;;;;;5032049;28;20107;-65
2022/06/24 10:47:05;;;;;;;3.92;1.85;;;;;;;;;;5033282;28;20046;-64
2022/06/24 10:50:00;;;;;;;3.38;1.60;;;;;;;;;;5032724;28;20064;-65
2022/06/24 10:52:48;;;;;;;3.47;2.38;;;;;;;;;;5032865;28;20042;-65
2022/06/24 10:55:14;;;;;;;3.25;1.65;;;;;;;;;;5033128;28;20056;-64
2022/06/24 10:57:47;;;;;;;5.25;1.92;;;;;;;;;;5032960;28;20084;-64
2022/06/24 11:00:16;;;;;;;3.00;1.70;;;;;;;;;;5032922;28;20107;-64
2022/06/24 11:02:50;;;;;;;4.05;2.00;;;;;;;;;;5032560;28;20115;-64
2022/06/24 11:05:29;;;;;;;4.55;2.13;;;;;;;;;;5031720;28;20401;-64
2022/06/24 11:07:56;;;;;;;3.08;1.58;;;;;;;;;;5031563;28;20493;-64
2022/06/24 11:10:30;;;;;;;7.15;2.25;;;;;;;;;;5032742;28;20053;-64
2022/06/24 11:12:59;;;;;;;3.97;1.83;;;;;;;;;;5032660;28;20527;-64
2022/06/24 11:15:41;;;;;;;4.63;1.58;;;;;;;;;;5032380;28;20057;-64
2022/06/24 11:18:08;;;;;;;7.25;2.08;;;;;;;;;;5033476;28;20049;-64
2022/06/24 11:20:37;;;;;;;4.97;1.58;;;;;;;;;;5032771;28;20049;-65
2022/06/24 11:23:09;;;;;;;4.65;1.63;;;;;;;;;;5032627;28;20099;-64
2022/06/24 11:25:40;;;;;;;3.30;1.70;;;;;;;;;;5032822;28;20049;-64
2022/06/24 11:28:40;;;;;;;4.25;1.55;;;;;;;;;;5031519;28;20451;-64
2022/06/24 11:31:19;;;;;;;3.13;1.48;;;;;;;;;;4989308;28;20179;-65
2022/06/24 11:33:48;;;;;;;5.57;2.20;;;;;;;;;;5032289;28;20053;-64
2022/06/24 11:36:15;;;;;;;3.25;1.42;;;;;;;;;;5032508;28;20488;-64
2022/06/24 11:38:54;;;;;;;4.15;2.13;;;;;;;;;;5032507;28;20052;-64
2022/06/24 11:41:30;;;;;;;2.20;1.48;;;;;;;;;;5032266;28;20544;-64
2022/06/24 11:44:15;;;;;;;3.15;1.75;;;;;;;;;;5032110;28;20496;-64
2022/06/24 11:46:51;;;;;;;2.40;1.30;;;;;;;;;;5032475;28;20045;-65
2022/06/24 11:49:18;;;;;;;2.72;1.63;;;;;;;;;;5032112;28;20057;-64
2022/06/24 11:51:45;;;;;;;2.40;1.25;;;;;;;;;;5031067;28;20107;-64
2022/06/24 11:54:11;;;;;;;2.58;1.50;;;;;;;;;;5032309;28;20071;-64
2022/06/24 11:56:39;;;;;;;4.45;1.50;;;;;;;;;;5031958;28;20053;-64
2022/06/24 11:59:07;;;;;;;2.78;1.55;;;;;;;;;;5032255;28;20111;-64
2022/06/24 12:01:34;;;;;;;3.17;1.25;;;;;;;;;;5031354;28;20423;-64
2022/06/24 12:04:03;;;;;;;2.35;1.17;;;;;;;;;;5014817;28;20081;-64
2022/06/24 12:06:29;;;;;;;4.05;1.50;;;;;;;;;;5030933;28;20045;-64
2022/06/24 12:08:56;;;;;;;5.22;1.38;;;;;;;;;;5032470;28;20054;-64
2022/06/24 12:11:23;;;;;;;2.67;1.60;;;;;;;;;;5014215;28;20523;-64
2022/06/24 12:13:59;;;;;;;4.05;1.27;;;;;;;;;;5031843;28;20191;-64
2022/06/24 12:16:27;;;;;;;7.00;1.40;;;;;;;;;;5031916;28;20056;-65
2022/06/24 12:18:54;;;;;;;2.03;1.50;;;;;;;;;;5031735;28;20056;-64
2022/06/24 12:21:28;;;;;;;3.47;1.63;;;;;;;;;;5031644;28;20057;-64
2022/06/24 12:23:54;;;;;;;1.77;1.00;;;;;;;;;;5031385;28;20487;-65
2022/06/24 12:26:23;;;;;;;2.55;0.95;;;;;;;;;;5031558;28;20562;-64
2022/06/24 12:29:01;;;;;;;8.80;1.83;;;;;;;;;;5031893;28;20482;-64
2022/06/24 12:31:28;;;;;;;6.53;2.30;;;;;;;;;;5031773;28;20053;-64
2022/06/24 12:33:56;;;;;;;3.97;1.85;;;;;;;;;;5031572;28;20052;-64
2022/06/24 12:36:24;;;;;;;3.97;1.73;;;;;;;;;;5031586;28;20050;-64
2022/06/24 12:38:56;;;;;;;4.00;1.98;;;;;;;;;;5031914;28;20107;-64
2022/06/24 12:41:23;;;;;;;;;;;;;;;;;;5032412;28;20109;-63
2022/06/24 12:43:52;;;;;;;2.67;1.40;;;;;;;;;;5031458;28;20289;-64
2022/06/24 12:46:23;;;;;;;3.60;2.08;;;;;;;;;;5031871;28;20056;-64
2022/06/24 12:51:54;;;;;;;5.88;1.52;;;;;;;;;;5031566;28;20049;-64
2022/06/24 12:54:20;;;;;;;3.50;1.42;;;;;;;;;;5031369;28;20508;-64
2022/06/24 12:57:07;;;;;;;5.15;1.67;;;;;;;;;;5031485;28;20136;-64
2022/06/24 12:59:33;;;;;;;7.43;1.55;;;;;;;;;;5031299;28;20053;-63
2022/06/24 13:02:00;;;;;;;2.35;1.88;;;;;;;;;;5031391;28;20100;-64
2022/06/24 13:04:27;;;;;;;5.50;1.98;;;;;;;;;;5013611;28;20077;-64
2022/06/24 13:06:53;;;;;;;5.90;2.17;;;;;;;;;;5031720;28;20053;-64
2022/06/24 13:09:20;;;;;;;5.05;2.30;;;;;;;;;;5031414;28;20049;-63
2022/06/24 13:11:46;;;;;;;7.40;2.83;;;;;;;;;;5031061;28;20045;-64
2022/06/24 13:14:13;;;;;;;4.57;1.80;;;;;;;;;;5032268;28;20393;-65
2022/06/24 13:16:39;;;;;;;9.40;2.03;;;;;;;;;;5033878;28;20459;-64
2022/06/24 13:19:06;;;;;;;5.65;2.20;;;;;;;;;;5035107;28;20049;-64
2022/06/24 13:21:33;;;;;;;5.57;2.00;;;;;;;;;;5034655;28;20045;-64
2022/06/24 13:23:59;;;;;;;3.22;1.75;;;;;;;;;;5034545;28;20049;-63
2022/06/24 13:26:26;;;;;;;3.70;1.75;;;;;;;;;;5034585;28;20049;-64
2022/06/24 13:28:53;;;;;;;4.13;1.80;;;;;;;;;;5033841;28;20061;-63
2022/06/24 13:31:19;;;;;;;6.65;1.85;;;;;;;;;;5034859;28;20108;-64
2022/06/24 13:33:46;;;;;;;5.28;2.90;;;;;;;;;;5034596;28;20053;-64
2022/06/24 13:36:12;;;;;;;7.93;2.40;;;;;;;;;;5034486;28;20064;-64
2022/06/24 13:38:39;;;;;;;4.45;2.03;;;;;;;;;;5034893;28;20048;-63
2022/06/24 13:41:06;;;;;;;6.90;2.15;;;;;;;;;;5034368;28;20061;-64
2022/06/24 13:43:33;;;;;;;4.80;2.53;;;;;;;;;;5034579;28;20562;-64
2022/06/24 13:45:59;;;;;;;6.22;2.42;;;;;;;;;;5034507;28;20558;-64
2022/06/24 13:48:26;;;;;;;5.45;2.45;;;;;;;;;;5035504;28;20056;-64
2022/06/24 13:50:53;;;;;;;6.18;2.10;;;;;;;;;;5034390;28;20051;-64
2022/06/24 13:53:19;;;;;;;5.07;2.38;;;;;;;;;;5033980;28;20516;-64
2022/06/24 13:55:46;;;;;;;7.97;2.03;;;;;;;;;;5034163;28;20049;-64
2022/06/24 13:58:13;;;;;;;5.55;1.80;;;;;;;;;;5034072;28;20050;-63
2022/06/24 14:00:40;;;;;;;4.18;1.70;;;;;;;;;;5034207;28;20049;-64
2022/06/24 14:03:06;;;;;;;3.95;1.50;;;;;;;;;;5034082;28;20533;-64
2022/06/24 14:05:33;;;;;;;10.88;2.33;;;;;;;;;;5034164;28;20081;-64
2022/06/24 14:08:00;;;;;;;8.60;2.20;;;;;;;;;;5034083;28;20049;-64
2022/06/24 14:10:26;;;;;;;4.90;1.67;;;;;;;;;;5034208;28;20475;-64
2022/06/24 14:12:57;;;;;;;4.72;1.80;;;;;;;;;;5033002;28;20045;-63
2022/06/24 14:15:24;;;;;;;6.05;2.22;;;;;;;;;;5033772;28;20056;-64
2022/06/24 14:17:51;;;;;;;3.15;1.95;;;;;;;;;;5033849;28;20492;-64
2022/06/24 14:20:18;;;;;;;5.72;2.00;;;;;;;;;;5033802;28;20421;-64
2022/06/24 14:25:31;;;;;;;4.13;1.90;;;;;;;;;;5032982;28;20263;-63
2022/06/24 14:27:57;;;;;;;2.92;1.95;;;;;;;;;;5033774;28;20100;-63
2022/06/24 14:30:24;;;;;;;7.35;2.20;;;;;;;;;;5033743;28;20049;-66
2022/06/24 14:32:50;;;;;;;4.57;2.53;;;;;;;;;;5033464;28;20053;-67
2022/06/24 14:35:17;;;;;;;4.32;2.58;;;;;;;;;;5033411;28;20056;-66
2022/06/24 14:40:29;;;;;;;4.65;2.40;;;;;;;;;;5033398;28;20049;-67
2022/06/24 14:43:15;;;;;;;6.70;2.58;;;;;;;;;;5033247;28;20056;-66
2022/06/24 14:45:41;;;;;;;5.18;2.42;;;;;;;;;;5032979;28;20520;-66
2022/06/24 14:48:08;;;;;;;5.18;2.63;;;;;;;;;;5033405;28;20448;-67
2022/06/24 14:50:35;;;;;;;5.75;2.83;;;;;;;;;;5033278;28;20401;-67
2022/06/24 14:53:02;;;;;;;3.78;2.20;;;;;;;;;;5033304;28;20115;-67
2022/06/24 14:55:29;;;;;;;3.78;2.30;;;;;;;;;;5033012;28;20497;-67
2022/06/24 14:57:56;;;;;;;6.38;2.40;;;;;;;;;;5032840;28;20049;-66
2022/06/24 15:00:26;;;;;;;3.28;2.40;;;;;;;;;;5033072;28;20057;-67
2022/06/24 15:02:53;;;;;;;6.47;2.50;;;;;;;;;;5032617;28;20045;-67
2022/06/24 15:05:20;;;;;;;5.13;2.40;;;;;;;;;;5032739;28;20049;-67
2022/06/24 15:07:47;;;;;;;4.10;2.45;;;;;;;;;;5032891;28;20049;-67
2022/06/24 15:10:13;;;;;;;5.63;1.90;;;;;;;;;;5032768;28;20192;-66